createdAt,value
2022-12-23T00:01:23.095Z,100453.25
2022-12-23T00:03:49.804Z,100457.63
2022-12-23T00:06:17.593Z,100456.81
2022-12-23T00:08:44.691Z,100457.63
2022-12-23T00:11:14.773Z,100452.31
2022-12-23T00:13:59.889Z,100455.00
2022-12-23T00:16:26.406Z,100456.81
2022-12-23T00:18:54.363Z,100468.13
2022-12-23T00:21:21.461Z,100471.63
2022-12-23T00:23:50.092Z,100481.19
2022-12-23T00:26:25.449Z,100480.44
2022-12-23T00:28:52.846Z,100482.13
2022-12-23T00:31:19.881Z,100478.63
2022-12-23T00:33:49.152Z,100481.25
2022-12-23T00:36:20.265Z,100484.75
2022-12-23T00:39:05.617Z,100496.19
2022-12-23T00:41:50.866Z,100488.19
2022-12-23T00:44:17.440Z,100496.06
2022-12-23T00:46:43.898Z,100495.16
2022-12-23T00:49:33.930Z,100491.69
2022-12-23T00:52:00.808Z,100490.81
2022-12-23T00:54:27.566Z,100495.25
2022-12-23T00:56:54.135Z,100495.25
2022-12-23T00:59:20.554Z,100496.94
2022-12-23T01:02:06.147Z,100501.34
2022-12-23T01:04:51.405Z,100503.94
2022-12-23T01:07:17.925Z,100512.69
2022-12-23T01:09:44.512Z,100513.53
2022-12-23T01:12:11.069Z,100513.53
2022-12-23T01:14:37.959Z,100509.09
2022-12-23T01:17:06.673Z,100509.84
2022-12-23T01:19:33.309Z,100517.75
2022-12-23T01:21:59.838Z,100513.53
2022-12-23T01:24:31.091Z,100523.00
2022-12-23T01:26:57.677Z,100524.84
2022-12-23T01:29:24.816Z,100535.34
2022-12-23T01:31:51.430Z,100533.59
2022-12-23T01:34:18.223Z,100530.97
2022-12-23T01:36:44.777Z,100535.34
2022-12-23T01:39:11.221Z,100545.84
2022-12-23T01:41:56.360Z,100546.81
2022-12-23T01:45:04.838Z,100546.81
2022-12-23T01:48:03.896Z,100544.19
2022-12-23T01:50:55.493Z,100550.38
2022-12-23T01:53:28.298Z,100557.41
2022-12-23T01:55:59.289Z,100555.63
2022-12-23T01:58:44.552Z,100555.53
2022-12-23T02:01:30.614Z,100565.22
2022-12-23T02:04:02.978Z,100572.13
2022-12-23T02:09:19.503Z,100580.97
2022-12-23T02:12:04.188Z,100584.50
2022-12-23T02:15:23.318Z,100590.59
2022-12-23T02:18:04.576Z,100585.44
2022-12-23T02:20:46.211Z,100586.22
2022-12-23T02:23:53.092Z,100589.75
2022-12-23T02:26:41.853Z,100597.53
2022-12-23T02:29:26.489Z,100602.78
2022-12-23T02:32:14.276Z,100612.47
2022-12-23T02:34:54.308Z,100612.47
2022-12-23T02:37:40.568Z,100613.41
2022-12-23T02:40:22.996Z,100619.56
2022-12-23T02:43:12.879Z,100618.66
2022-12-23T02:46:09.754Z,100618.75
2022-12-23T02:48:53.506Z,100629.25
2022-12-23T02:51:22.689Z,100630.09
2022-12-23T02:53:56.796Z,100637.84
2022-12-23T02:56:27.156Z,100630.09
2022-12-23T02:58:58.965Z,100635.34
2022-12-23T03:01:29.672Z,100646.66
2022-12-23T03:03:56.289Z,100650.16
2022-12-23T03:06:38.559Z,100657.16
2022-12-23T03:09:05.093Z,100648.47
2022-12-23T03:11:49.779Z,100651.84
2022-12-23T03:14:36.577Z,100652.78
2022-12-23T03:17:08.741Z,100645.84
2022-12-23T03:19:53.220Z,100655.41
2022-12-23T03:22:35.923Z,100642.28
2022-12-23T03:25:21.290Z,100644.91
2022-12-23T03:28:13.130Z,100639.75
2022-12-23T03:30:43.041Z,100634.56
2022-12-23T03:33:21.231Z,100646.75
2022-12-23T03:35:52.888Z,100635.53
2022-12-23T03:38:19.831Z,100639.81
2022-12-23T03:40:57.612Z,100642.44
2022-12-23T03:43:31.405Z,100642.44
2022-12-23T03:46:03.496Z,100652.94
2022-12-23T03:48:39.147Z,100666.06
2022-12-23T03:51:14.583Z,100663.44
2022-12-23T03:53:48.234Z,100653.03
2022-12-23T03:56:21.726Z,100649.59
2022-12-23T03:59:08.316Z,100647.91
2022-12-23T04:01:56.760Z,100652.22
2022-12-23T04:04:52.560Z,100667.97
2022-12-23T04:07:23.709Z,100674.97
2022-12-23T04:09:53.189Z,100677.72
2022-12-23T04:12:23.389Z,100677.72
2022-12-23T04:14:50.392Z,100682.03
2022-12-23T04:17:17.664Z,100682.94
2022-12-23T04:19:47.932Z,100691.75
2022-12-23T04:22:16.134Z,100702.25
2022-12-23T04:24:43.092Z,100703.13
2022-12-23T04:27:12.881Z,100701.44
2022-12-23T04:29:39.293Z,100706.78
2022-12-23T04:32:06.113Z,100707.72
2022-12-23T04:34:32.595Z,100704.25
2022-12-23T04:36:58.990Z,100701.63
2022-12-23T04:39:25.348Z,100700.75
2022-12-23T04:41:51.685Z,100701.53
2022-12-23T04:44:18.076Z,100698.03
2022-12-23T04:46:44.641Z,100705.84
2022-12-23T04:49:11.032Z,100699.56
2022-12-23T04:51:37.416Z,100702.09
2022-12-23T04:54:04.021Z,100689.91
2022-12-23T04:56:30.352Z,100686.44
2022-12-23T04:58:56.678Z,100680.16
2022-12-23T05:01:23.102Z,100684.38
2022-12-23T05:03:49.588Z,100688.78
2022-12-23T05:06:16.050Z,100688.59
2022-12-23T05:08:42.438Z,100689.34
2022-12-23T05:11:08.877Z,100687.47
2022-12-23T05:13:35.269Z,100690.00
2022-12-23T05:16:01.640Z,100694.22
2022-12-23T05:18:28.032Z,100691.59
2022-12-23T05:20:54.382Z,100692.44
2022-12-23T05:23:20.850Z,100695.72
2022-12-23T05:25:52.734Z,100711.47
2022-12-23T05:28:19.611Z,100708.84
2022-12-23T05:30:46.120Z,100715.81
2022-12-23T05:33:12.717Z,100714.88
2022-12-23T05:35:39.105Z,100714.78
2022-12-23T05:38:05.569Z,100720.88
2022-12-23T05:40:32.986Z,100725.19
2022-12-23T05:42:59.949Z,100726.03
2022-12-23T05:45:26.512Z,100733.81
2022-12-23T05:47:52.903Z,100733.63
2022-12-23T05:50:19.324Z,100731.75
2022-12-23T05:52:45.685Z,100729.97
2022-12-23T05:55:12.116Z,100731.75
2022-12-23T05:57:38.524Z,100732.53
2022-12-23T06:00:05.332Z,100730.72
2022-12-23T06:02:31.922Z,100729.78
2022-12-23T06:04:58.452Z,100732.31
2022-12-23T06:07:24.815Z,100727.91
2022-12-23T06:09:51.212Z,100722.59
2022-12-23T06:12:17.600Z,100726.88
2022-12-23T06:14:44.031Z,100722.59
2022-12-23T06:17:10.374Z,100730.38
2022-12-23T06:19:36.717Z,100729.44
2022-12-23T06:22:03.082Z,100719.75
2022-12-23T06:24:29.495Z,100704.00
2022-12-23T06:26:57.443Z,100701.19
2022-12-23T06:29:24.890Z,100700.47
2022-12-23T06:31:51.532Z,100709.06
2022-12-23T06:34:18.087Z,100701.19
2022-12-23T06:36:44.533Z,100709.84
2022-12-23T06:39:11.054Z,100711.63
2022-12-23T06:41:37.468Z,100712.56
2022-12-23T06:44:04.027Z,100711.69
2022-12-23T06:46:30.620Z,100712.56
2022-12-23T06:48:57.063Z,100725.81
2022-12-23T06:51:23.500Z,100732.72
2022-12-23T06:53:49.938Z,100732.81
2022-12-23T06:56:16.384Z,100732.81
2022-12-23T06:58:42.812Z,100746.03
2022-12-23T07:01:10.239Z,100733.75
2022-12-23T07:03:36.865Z,100746.97
2022-12-23T07:06:03.509Z,100750.44
2022-12-23T07:08:29.902Z,100750.50
2022-12-23T07:11:00.118Z,100749.69
2022-12-23T07:13:27.135Z,100752.41
2022-12-23T07:15:53.732Z,100752.41
2022-12-23T08:29:07.603Z,100746.72
2022-12-23T08:31:34.255Z,100752.13
2022-12-23T08:34:01.210Z,100745.28
2022-12-23T08:36:33.106Z,100732.28
2022-12-23T08:39:03.834Z,100725.34
2022-12-23T08:41:34.156Z,100720.09
2022-12-23T08:44:00.517Z,100719.31
2022-12-23T08:46:27.458Z,100721.94
2022-12-23T09:02:06.469Z,100702.50
2022-12-23T09:04:32.905Z,100701.56
2022-12-23T09:06:59.405Z,100699.03
2022-12-23T09:09:25.791Z,100692.97
2022-12-23T09:11:52.209Z,100692.03
2022-12-23T09:14:18.570Z,100688.53
2022-12-23T09:16:44.949Z,100681.53
2022-12-23T09:19:11.386Z,100688.44
2022-12-23T09:21:37.761Z,100690.25
2022-12-23T09:24:04.468Z,100683.22
2022-12-23T09:26:31.677Z,100690.25
2022-12-23T09:28:58.887Z,100677.97
2022-12-23T09:31:30.805Z,100678.94
2022-12-23T09:34:00.664Z,100681.53
2022-12-23T09:36:27.051Z,100687.63
2022-12-23T09:38:54.819Z,100681.53
2022-12-23T09:41:39.582Z,100678.94
2022-12-23T09:44:23.691Z,100685.84
2022-12-23T09:47:05.805Z,100683.22
2022-12-23T09:49:33.700Z,100683.31
2022-12-23T09:52:04.714Z,100674.50
2022-12-23T09:54:41.726Z,100667.56
2022-12-23T09:57:22.719Z,100660.56
2022-12-23T10:00:04.116Z,100649.22
2022-12-23T10:02:30.611Z,100638.66
2022-12-23T10:05:05.499Z,100633.41
2022-12-23T10:07:58.155Z,100623.88
2022-12-23T10:10:39.413Z,100620.31
2022-12-23T10:13:11.249Z,100613.31
2022-12-23T10:34:38.290Z,100588.69
2022-12-23T10:55:02.190Z,100575.47
2022-12-23T10:57:30.064Z,100571.00
2022-12-23T10:59:57.480Z,100565.78
2022-12-23T11:02:24.034Z,100568.28
2022-12-23T11:04:50.825Z,100555.28
2022-12-23T11:07:45.158Z,100549.94
2022-12-23T11:10:19.330Z,100550.03
2022-12-23T11:12:51.326Z,100544.69
2022-12-23T11:15:27.002Z,100532.53
2022-12-23T11:18:16.961Z,100543.69
2022-12-23T11:20:46.366Z,100537.66
2022-12-23T11:23:27.085Z,100542.81
2022-12-23T11:26:09.445Z,100543.69
2022-12-23T11:28:39.902Z,100538.34
2022-12-23T11:31:11.794Z,100541.78
2022-12-23T11:33:48.829Z,100531.31
2022-12-23T11:36:23.898Z,100527.75
2022-12-23T11:39:04.243Z,100512.88
2022-12-23T11:41:37.307Z,100499.78
2022-12-23T11:44:12.262Z,100495.38
2022-12-23T11:46:38.656Z,100477.84
2022-12-23T11:49:27.212Z,100467.34
2022-12-23T11:52:09.516Z,100464.66
2022-12-23T11:54:36.733Z,100459.41
2022-12-23T11:57:07.801Z,100448.06
2022-12-23T11:59:38.602Z,100437.59
2022-12-23T12:02:15.936Z,100432.34
2022-12-23T12:04:42.723Z,100437.50
2022-12-23T12:07:14.332Z,100430.47
2022-12-23T12:09:43.375Z,100426.16
2022-12-23T12:12:16.912Z,100428.69
2022-12-23T12:14:47.040Z,100418.19
2022-12-23T12:17:32.777Z,100416.44
2022-12-23T12:20:05.810Z,100411.19
2022-12-23T12:22:38.086Z,100409.50
2022-12-23T12:25:10.811Z,100417.38
2022-12-23T12:27:40.213Z,100415.59
2022-12-23T12:30:15.890Z,100405.09
2022-12-23T12:32:45.023Z,100395.47
2022-12-23T12:35:43.624Z,100383.28
2022-12-23T12:38:23.969Z,100372.81
2022-12-23T12:40:56.740Z,100362.31
2022-12-23T12:43:33.287Z,100359.69
2022-12-23T12:46:32.669Z,100357.06
2022-12-23T12:49:37.115Z,100338.72
2022-12-23T12:52:11.814Z,100342.16
2022-12-23T12:54:48.978Z,100331.69
2022-12-23T12:57:17.788Z,100319.44
2022-12-23T12:59:45.256Z,100315.94
2022-12-23T13:02:22.734Z,100316.81
2022-12-23T13:05:10.508Z,100305.47
2022-12-23T13:07:45.613Z,100308.94
2022-12-23T13:10:22.059Z,100303.69
2022-12-23T13:13:00.558Z,100302.84
2022-12-23T13:15:59.291Z,100294.97
2022-12-23T13:18:40.050Z,100300.97
2022-12-23T13:21:16.842Z,100289.72
2022-12-23T13:24:03.607Z,100295.84
2022-12-23T13:26:37.942Z,100294.03
2022-12-23T13:29:38.206Z,100297.50
2022-12-23T13:32:21.781Z,100287.88
2022-12-23T13:34:57.161Z,100281.69
2022-12-23T13:37:42.266Z,100281.59
2022-12-23T13:40:22.267Z,100274.66
2022-12-23T13:42:57.396Z,100275.59
2022-12-23T13:45:31.830Z,100288.69
2022-12-23T13:48:24.685Z,100290.50
2022-12-23T13:51:06.680Z,100276.53
2022-12-23T13:54:03.962Z,100259.13
2022-12-23T13:56:50.436Z,100247.06
2022-12-23T13:59:17.087Z,100246.09
2022-12-23T14:01:49.548Z,100227.75
2022-12-23T14:04:33.556Z,100240.03
2022-12-23T14:07:03.323Z,100216.53
2022-12-23T14:09:35.300Z,100212.13
2022-12-23T14:12:19.410Z,100193.66
2022-12-23T14:14:58.787Z,100193.75
2022-12-23T14:17:44.518Z,100202.50
2022-12-23T14:20:19.696Z,100198.91
2022-12-23T14:23:18.317Z,100199.75
2022-12-23T14:25:50.657Z,100204.06
2022-12-23T14:28:42.151Z,100199.75
2022-12-23T14:31:30.020Z,100183.09
2022-12-23T14:34:24.935Z,100175.13
2022-12-23T14:37:24.160Z,100175.22
2022-12-23T14:39:51.426Z,100189.16
2022-12-23T14:42:42.185Z,100185.72
2022-12-23T14:45:29.436Z,100193.59
2022-12-23T14:47:55.932Z,100197.97
2022-12-23T14:50:39.535Z,100197.03
2022-12-23T14:53:26.278Z,100203.97
2022-12-23T14:56:10.695Z,100212.75
2022-12-23T14:58:45.959Z,100209.22
2022-12-23T15:01:16.952Z,100196.94
2022-12-23T15:03:47.754Z,100194.31
2022-12-23T15:06:33.334Z,100192.63
2022-12-23T15:09:01.465Z,100187.38
2022-12-23T15:11:31.447Z,100191.69
2022-12-23T15:14:01.433Z,100186.44
2022-12-23T15:16:35.183Z,100183.81
2022-12-23T15:19:16.464Z,100174.25
2022-12-23T15:21:46.824Z,100170.81
2022-12-23T15:24:20.493Z,100167.38
2022-12-23T15:27:17.825Z,100171.84
2022-12-23T15:29:43.667Z,100170.00
2022-12-23T15:32:10.929Z,100172.59
2022-12-23T15:34:37.701Z,100169.03
2022-12-23T15:37:10.952Z,100165.56
2022-12-23T15:39:41.213Z,100169.03
2022-12-23T15:42:26.537Z,100165.56
2022-12-23T15:44:53.547Z,100178.56
2022-12-23T15:47:26.135Z,100170.00
2022-12-23T15:49:52.609Z,100149.94
2022-12-23T15:52:20.568Z,100159.56
2022-12-23T15:55:02.202Z,100170.94
2022-12-23T15:57:30.271Z,100185.72
2022-12-23T15:59:58.744Z,100189.28
2022-12-23T16:02:59.043Z,100185.72
2022-12-23T16:05:12.387Z,100190.97
2022-12-23T16:07:41.728Z,100196.28
2022-12-23T16:10:15.419Z,100197.13
2022-12-23T16:12:42.722Z,100204.06
2022-12-23T16:15:27.365Z,100189.28
2022-12-23T16:18:20.301Z,100191.91
2022-12-23T16:21:00.750Z,100203.31
2022-12-23T16:23:33.682Z,100196.22
2022-12-23T16:26:01.645Z,100185.72
2022-12-23T16:28:35.664Z,100178.78
2022-12-23T16:31:06.412Z,100180.47
2022-12-23T16:33:55.321Z,100176.88
2022-12-23T16:36:33.477Z,100166.41
2022-12-23T16:39:12.914Z,100172.50
2022-12-23T16:41:39.552Z,100191.69
2022-12-23T16:44:06.080Z,100189.16
2022-12-23T16:46:36.558Z,100197.88
2022-12-23T16:49:06.002Z,100195.25
2022-12-23T16:51:34.089Z,100191.78
2022-12-23T16:54:01.412Z,100198.72
2022-12-23T16:56:31.749Z,100197.78
2022-12-23T16:58:58.182Z,100195.16
2022-12-23T17:01:30.998Z,100202.06
2022-12-23T17:03:57.482Z,100205.53
2022-12-23T17:06:25.205Z,100202.94
2022-12-23T17:08:53.151Z,100207.41
2022-12-23T17:11:35.897Z,100212.75
2022-12-23T17:14:06.680Z,100210.25
2022-12-23T17:16:35.627Z,100216.31
2022-12-23T17:19:02.010Z,100206.59
2022-12-23T17:21:34.873Z,100195.16
2022-12-23T17:24:13.928Z,100203.97
2022-12-23T17:26:40.339Z,100228.78
2022-12-23T17:29:06.857Z,100229.91
2022-12-23T17:31:34.091Z,100213.16
2022-12-23T17:34:01.215Z,100210.44
2022-12-23T17:36:27.820Z,100208.56
2022-12-23T17:38:54.431Z,100214.75
2022-12-23T17:41:32.108Z,100217.34
2022-12-23T17:43:59.467Z,100212.88
2022-12-23T17:46:26.349Z,100204.16
2022-12-23T17:48:53.267Z,100209.38
2022-12-23T17:51:22.515Z,100207.53
2022-12-23T17:53:56.848Z,100211.84
2022-12-23T17:56:24.523Z,100209.22
2022-12-23T17:58:51.315Z,100216.97
2022-12-23T18:01:24.246Z,100209.84
2022-12-23T18:03:50.770Z,100203.66
2022-12-23T18:06:21.524Z,100213.19
2022-12-23T18:08:48.600Z,100208.59
2022-12-23T18:11:20.594Z,100212.81
2022-12-23T18:13:48.848Z,100216.19
2022-12-23T18:16:15.322Z,100214.28
2022-12-23T18:18:46.195Z,100229.94
2022-12-23T18:21:27.367Z,100239.41
2022-12-23T18:23:57.149Z,100236.56
2022-12-23T18:26:23.641Z,100234.69
2022-12-23T18:28:51.299Z,100234.69
2022-12-23T18:31:21.928Z,100238.91
2022-12-23T18:33:48.540Z,100242.34
2022-12-23T18:36:33.182Z,100245.72
2022-12-23T18:39:00.199Z,100251.69
2022-12-23T18:41:27.907Z,100250.75
2022-12-23T18:43:55.050Z,100258.53
2022-12-23T18:46:21.984Z,100272.50
2022-12-23T18:48:48.634Z,100264.41
2022-12-23T18:51:17.259Z,100267.88
2022-12-23T18:53:43.986Z,100259.06
2022-12-23T18:56:14.053Z,100278.28
2022-12-23T18:58:40.465Z,100286.16
2022-12-23T19:01:14.024Z,100276.38
2022-12-23T19:03:41.183Z,100279.78
2022-12-23T19:06:09.084Z,100283.31
2022-12-23T19:08:37.154Z,100282.38
2022-12-23T19:11:14.350Z,100277.97
2022-12-23T19:13:41.034Z,100276.28
2022-12-23T19:16:07.943Z,100289.41
2022-12-23T19:18:34.420Z,100275.44
2022-12-23T19:21:04.327Z,100281.53
2022-12-23T19:23:30.712Z,100281.53
2022-12-23T19:25:57.131Z,100285.00
2022-12-23T19:28:23.752Z,100288.56
2022-12-23T19:30:50.500Z,100287.75
2022-12-23T19:33:17.007Z,100297.28
2022-12-23T19:35:44.059Z,100299.91
2022-12-23T19:38:10.970Z,100309.47
2022-12-23T19:40:37.790Z,100304.22
2022-12-23T19:43:04.523Z,100308.63
2022-12-23T19:45:30.984Z,100311.25
2022-12-23T19:47:57.499Z,100324.16
2022-12-23T19:50:24.047Z,100321.53
2022-12-23T19:52:51.582Z,100320.81
2022-12-23T19:55:17.958Z,100329.41
2022-12-23T19:57:44.369Z,100334.56
2022-12-23T20:00:11.266Z,100338.03
2022-12-23T20:02:37.824Z,100343.28
2022-12-23T20:05:04.706Z,100353.78
2022-12-23T20:07:31.075Z,100354.59
2022-12-23T20:09:57.439Z,100359.03
2022-12-23T20:12:25.311Z,100359.03
2022-12-23T20:14:51.857Z,100360.78
2022-12-23T20:17:18.175Z,100355.47
2022-12-23T20:19:46.261Z,100363.34
2022-12-23T20:22:12.845Z,100361.53
2022-12-23T20:24:39.222Z,100374.66
2022-12-23T20:27:10.928Z,100375.53
2022-12-23T20:29:38.350Z,100376.47
2022-12-23T20:32:04.908Z,100378.16
2022-12-23T20:34:38.394Z,100383.41
2022-12-23T20:37:05.380Z,100391.28
2022-12-23T20:39:31.730Z,100385.06
2022-12-23T20:41:58.125Z,100398.94
2022-12-23T20:44:34.643Z,100388.44
2022-12-23T20:47:02.742Z,100399.78
2022-12-23T20:49:29.313Z,100394.44
2022-12-23T20:51:55.749Z,100401.47
2022-12-23T20:54:27.919Z,100403.97
2022-12-23T20:56:58.559Z,100424.03
2022-12-23T20:59:24.999Z,100424.91
2022-12-23T21:01:52.115Z,100433.59
2022-12-23T21:04:18.881Z,100443.91
2022-12-23T21:06:45.482Z,100436.88
2022-12-23T21:09:14.549Z,100443.81
2022-12-23T21:11:43.957Z,100443.81
2022-12-23T21:14:11.259Z,100460.50
2022-12-23T21:16:38.642Z,100451.69
2022-12-23T21:19:07.143Z,100447.38
2022-12-23T21:21:33.708Z,100461.53
2022-12-23T21:24:04.060Z,100461.53
2022-12-23T21:26:31.857Z,100467.63
2022-12-23T21:29:00.405Z,100451.03
2022-12-23T21:31:28.372Z,100475.38
2022-12-23T21:33:55.289Z,100468.47
2022-12-23T21:36:24.851Z,100484.13
2022-12-23T21:38:52.064Z,100485.06
2022-12-23T21:41:21.841Z,100481.50
2022-12-23T21:43:49.672Z,100502.50
2022-12-23T21:46:18.923Z,100488.50
2022-12-23T21:48:46.018Z,100498.28
2022-12-23T21:51:15.121Z,100505.22
2022-12-23T21:53:42.875Z,100503.53
2022-12-23T21:56:14.642Z,100503.53
2022-12-23T21:58:41.777Z,100512.34
2022-12-23T22:01:09.423Z,100521.91
2022-12-23T22:03:36.844Z,100518.34
2022-12-23T22:06:10.194Z,100517.38
2022-12-23T22:08:37.425Z,100519.19
2022-12-23T22:11:12.079Z,100528.09
2022-12-23T22:13:38.784Z,100533.34
2022-12-23T22:16:09.871Z,100541.47
2022-12-23T22:18:37.375Z,100535.59
2022-12-23T22:21:05.339Z,100554.97
2022-12-23T22:23:31.749Z,100553.38
2022-12-23T22:25:58.273Z,100567.63
2022-12-23T22:28:24.633Z,100566.03
2022-12-23T22:30:51.141Z,100569.69
2022-12-23T22:33:17.563Z,100577.66
2022-12-23T22:35:52.885Z,100576.81
2022-12-23T22:38:19.214Z,100585.63
2022-12-23T22:40:49.303Z,100583.00
2022-12-23T22:43:15.702Z,100596.13
2022-12-23T22:45:42.048Z,100604.00
2022-12-23T22:48:08.569Z,100606.63
2022-12-23T22:50:35.192Z,100606.78
2022-12-23T22:53:01.544Z,100605.03
2022-12-23T22:55:27.904Z,100603.41
2022-12-23T22:57:54.284Z,100602.56
2022-12-23T23:00:20.952Z,100603.41
2022-12-23T23:02:47.455Z,100617.38
2022-12-23T23:05:13.889Z,100615.59
2022-12-23T23:07:40.374Z,100617.38
2022-12-23T23:10:07.487Z,100622.53
2022-12-23T23:12:33.913Z,100625.16
2022-12-23T23:15:00.367Z,100626.84
2022-12-23T23:17:28.200Z,100631.16
2022-12-23T23:19:55.106Z,100629.47
2022-12-23T23:22:23.355Z,100638.09
2022-12-23T23:24:49.884Z,100632.84
2022-12-23T23:27:16.382Z,100641.66
2022-12-23T23:29:42.790Z,100644.28
2022-12-23T23:32:09.919Z,100638.09
2022-12-23T23:34:36.903Z,100637.06
2022-12-23T23:37:04.714Z,100651.94
2022-12-23T23:39:31.148Z,100640.44
2022-12-23T23:41:57.615Z,100654.50
2022-12-23T23:44:24.025Z,100659.66
2022-12-23T23:46:50.406Z,100669.38
2022-12-23T23:49:16.763Z,100681.78
2022-12-23T23:51:43.216Z,100677.34
2022-12-23T23:54:09.652Z,100677.34
2022-12-23T23:56:39.128Z,100675.56
2022-12-23T23:59:06.654Z,100693.94
